createdAt,value
2023-05-09T00:20:25.400Z,1006.2
2023-05-09T00:30:30.616Z,1006.1
2023-05-09T00:40:36.877Z,1006
2023-05-09T00:50:43.020Z,1005.9
2023-05-09T01:21:01.621Z,1005.7
2023-05-09T01:31:07.897Z,1005.6
2023-05-09T01:51:20.224Z,1005.4
2023-05-09T02:11:32.617Z,1005.2
2023-05-09T02:21:38.826Z,1005.3
2023-05-09T02:41:51.263Z,1005.2
2023-05-09T02:51:56.437Z,1005.1
2023-05-09T03:12:08.846Z,1005.1
2023-05-09T03:22:15.051Z,1005
2023-05-09T04:12:45.780Z,1004.7
2023-05-09T04:22:52.069Z,1004.8
2023-05-09T04:32:58.210Z,1004.7
2023-05-09T04:53:10.546Z,1004.6
2023-05-09T05:23:28.976Z,1004.3
2023-05-09T05:33:34.105Z,1004.3
2023-05-09T05:43:40.285Z,1004.2
2023-05-09T05:53:46.395Z,1004.2
2023-05-09T06:13:58.703Z,1004.1
2023-05-09T06:24:04.893Z,1004.1
2023-05-09T06:34:11.018Z,1004
2023-05-09T06:44:17.135Z,1003.8
2023-05-09T07:14:35.586Z,1003.5
2023-05-09T07:24:41.717Z,1003.3
2023-05-09T07:34:47.876Z,1003.2
2023-05-09T07:44:53.018Z,1003.1
2023-05-09T07:54:59.150Z,1003
2023-05-09T08:15:11.518Z,1002.8
2023-05-09T08:25:17.673Z,1002.7
2023-05-09T08:45:29.949Z,1002.5
2023-05-09T08:55:36.101Z,1002.4
2023-05-09T09:15:48.496Z,1002.2
2023-05-09T09:36:00.676Z,1002
2023-05-09T09:46:06.812Z,1002
2023-05-09T09:56:11.989Z,1001.8
2023-05-09T10:16:24.265Z,1001.5
2023-05-09T10:26:30.603Z,1001.4
2023-05-09T10:36:36.672Z,1001.2
2023-05-09T10:46:42.663Z,1001
2023-05-09T10:56:48.819Z,1000.9
2023-05-09T11:06:55.127Z,1000.7
2023-05-09T11:17:01.149Z,1000.5
2023-05-09T11:27:07.224Z,1000.4
2023-05-09T11:37:13.542Z,1000.3
2023-05-09T11:47:19.523Z,1000.1
2023-05-09T12:17:38.017Z,999.7
2023-05-09T12:27:43.232Z,999.7
2023-05-09T12:37:49.228Z,999.5
2023-05-09T12:47:55.542Z,999.4
2023-05-09T12:58:01.603Z,999.2
2023-05-09T13:58:38.399Z,998.2
2023-05-09T14:18:49.665Z,997.8
2023-05-09T14:39:01.024Z,997.6
2023-05-09T14:59:12.282Z,997.2
2023-05-09T15:39:35.879Z,997.1
2023-05-09T15:49:41.043Z,997.1
2023-05-09T15:59:47.184Z,996.8
2023-05-09T16:30:05.606Z,996.2
2023-05-09T16:40:11.740Z,996.1
2023-05-09T16:50:17.888Z,995.9
2023-05-09T17:20:36.310Z,996.1
2023-05-09T17:30:42.445Z,996
2023-05-09T17:50:54.738Z,995.8
2023-05-09T18:00:59.889Z,995.7
2023-05-09T18:31:18.311Z,996.3
2023-05-09T18:41:24.572Z,996.1
2023-05-09T18:51:30.585Z,996.3
2023-05-09T19:01:36.807Z,996.3
2023-05-09T19:21:49.057Z,996.1
2023-05-09T19:31:55.384Z,996.1
2023-05-09T19:42:01.443Z,996.2
2023-05-09T19:52:07.749Z,996.2
2023-05-09T20:02:13.912Z,996.3
2023-05-09T20:12:19.055Z,996.2
2023-05-09T20:42:37.646Z,996
2023-05-09T20:52:43.843Z,995.9
2023-05-09T21:02:50.125Z,995.9
2023-05-09T21:23:02.446Z,995.8
2023-05-09T21:33:08.651Z,995.7
2023-05-09T21:43:14.825Z,995.7
2023-05-09T21:53:21.022Z,995.6
2023-05-09T22:03:27.349Z,995.6
2023-05-09T22:13:33.480Z,995.5
2023-05-09T22:23:38.706Z,995.5
2023-05-09T22:33:44.833Z,995.5
2023-05-09T22:43:51.039Z,995.4
2023-05-09T22:53:57.229Z,995.4
2023-05-09T23:04:03.423Z,995.3
2023-05-09T23:14:09.629Z,995.2
2023-05-09T23:24:15.837Z,995.2
2023-05-09T23:34:22.038Z,995.2
2023-05-09T23:44:28.228Z,995.3
2023-05-09T23:54:34.428Z,995.5
